sensor_id;sensor_type;location;lat;lon;timestamp;pressure;altitude;pressure_sealevel;temperature;humidity
59367;BME280;45163;47.690;11.770;2023-08-01T00:01:32;92743.38;;;16.49;nan
59367;BME280;45163;47.690;11.770;2023-08-01T00:03:58;92747.38;;;16.48;nan
59367;BME280;45163;47.690;11.770;2023-08-01T00:06:24;92753.09;;;16.44;nan
59367;BME280;45163;47.690;11.770;2023-08-01T00:08:51;92760.31;;;16.16;nan
59367;BME280;45163;47.690;11.770;2023-08-01T00:11:17;92746.53;;;16.16;nan
59367;BME280;45163;47.690;11.770;2023-08-01T00:13:43;92767.66;;;16.25;nan
59367;BME280;45163;47.690;11.770;2023-08-01T00:16:09;92755.81;;;16.39;nan
59367;BME280;45163;47.690;11.770;2023-08-01T00:18:35;92759.66;;;16.47;nan
59367;BME280;45163;47.690;11.770;2023-08-01T00:21:02;92763.38;;;16.44;nan
59367;BME280;45163;47.690;11.770;2023-08-01T00:23:28;92767.78;;;16.36;nan
59367;BME280;45163;47.690;11.770;2023-08-01T00:25:54;92769.34;;;16.42;nan
59367;BME280;45163;47.690;11.770;2023-08-01T00:28:23;92769.28;;;16.37;nan
59367;BME280;45163;47.690;11.770;2023-08-01T00:30:49;92755.94;;;16.30;nan
59367;BME280;45163;47.690;11.770;2023-08-01T00:33:15;92760.34;;;16.22;nan
59367;BME280;45163;47.690;11.770;2023-08-01T00:35:41;92761.56;;;16.15;nan
59367;BME280;45163;47.690;11.770;2023-08-01T00:38:07;92752.53;;;15.74;nan
59367;BME280;45163;47.690;11.770;2023-08-01T00:40:34;92751.84;;;15.99;nan
59367;BME280;45163;47.690;11.770;2023-08-01T00:43:00;92753.44;;;16.06;nan
59367;BME280;45163;47.690;11.770;2023-08-01T00:45:26;92737.69;;;16.06;nan
59367;BME280;45163;47.690;11.770;2023-08-01T00:47:54;92740.31;;;16.21;nan
59367;BME280;45163;47.690;11.770;2023-08-01T00:50:21;92730.31;;;16.18;nan
59367;BME280;45163;47.690;11.770;2023-08-01T00:52:50;92730.53;;;15.94;nan
59367;BME280;45163;47.690;11.770;2023-08-01T00:55:18;92735.19;;;15.88;nan
59367;BME280;45163;47.690;11.770;2023-08-01T00:57:44;92730.19;;;16.07;nan
59367;BME280;45163;47.690;11.770;2023-08-01T01:00:11;92714.78;;;15.94;nan
59367;BME280;45163;47.690;11.770;2023-08-01T01:02:37;92703.56;;;15.98;nan
59367;BME280;45163;47.690;11.770;2023-08-01T01:05:03;92710.56;;;15.99;nan
59367;BME280;45163;47.690;11.770;2023-08-01T01:07:31;92703.47;;;15.92;nan
59367;BME280;45163;47.690;11.770;2023-08-01T01:10:00;92705.06;;;15.99;nan
59367;BME280;45163;47.690;11.770;2023-08-01T01:12:26;92708.09;;;16.01;nan
59367;BME280;45163;47.690;11.770;2023-08-01T01:14:52;92717.66;;;16.06;nan
59367;BME280;45163;47.690;11.770;2023-08-01T01:17:18;92714.63;;;16.04;nan
59367;BME280;45163;47.690;11.770;2023-08-01T01:19:44;92698.13;;;15.83;nan
59367;BME280;45163;47.690;11.770;2023-08-01T01:22:10;92688.31;;;15.77;nan
59367;BME280;45163;47.690;11.770;2023-08-01T01:24:37;92685.34;;;15.80;nan
59367;BME280;45163;47.690;11.770;2023-08-01T01:27:06;92679.69;;;15.89;nan
59367;BME280;45163;47.690;11.770;2023-08-01T01:29:33;92675.91;;;15.87;nan
59367;BME280;45163;47.690;11.770;2023-08-01T01:32:00;92667.19;;;15.88;nan
59367;BME280;45163;47.690;11.770;2023-08-01T01:34:30;92668.94;;;15.91;nan
59367;BME280;45163;47.690;11.770;2023-08-01T01:36:56;92664.56;;;15.79;nan
59367;BME280;45163;47.690;11.770;2023-08-01T01:39:22;92665.38;;;15.85;nan
59367;BME280;45163;47.690;11.770;2023-08-01T01:41:47;92654.09;;;15.83;nan
59367;BME280;45163;47.690;11.770;2023-08-01T01:44:13;92640.53;;;15.80;nan
59367;BME280;45163;47.690;11.770;2023-08-01T01:46:39;92637.88;;;15.85;nan
59367;BME280;45163;47.690;11.770;2023-08-01T01:49:06;92634.16;;;15.88;nan
59367;BME280;45163;47.690;11.770;2023-08-01T01:51:32;92621.97;;;16.01;nan
59367;BME280;45163;47.690;11.770;2023-08-01T01:53:58;92612.97;;;16.00;nan
59367;BME280;45163;47.690;11.770;2023-08-01T01:56:24;92601.41;;;15.96;nan
59367;BME280;45163;47.690;11.770;2023-08-01T01:58:50;92590.47;;;16.02;nan
59367;BME280;45163;47.690;11.770;2023-08-01T02:01:16;92569.69;;;16.01;nan
59367;BME280;45163;47.690;11.770;2023-08-01T02:03:42;92571.00;;;16.05;nan
59367;BME280;45163;47.690;11.770;2023-08-01T02:06:07;92576.22;;;16.03;nan
59367;BME280;45163;47.690;11.770;2023-08-01T02:08:33;92554.41;;;17.88;nan
59367;BME280;45163;47.690;11.770;2023-08-01T02:10:59;92537.63;;;18.48;nan
59367;BME280;45163;47.690;11.770;2023-08-01T02:13:26;92549.91;;;16.28;nan
59367;BME280;45163;47.690;11.770;2023-08-01T02:15:54;92549.97;;;16.08;nan
59367;BME280;45163;47.690;11.770;2023-08-01T02:18:20;92531.59;;;15.93;nan
59367;BME280;45163;47.690;11.770;2023-08-01T02:20:46;92534.09;;;15.91;nan
59367;BME280;45163;47.690;11.770;2023-08-01T02:23:12;92544.63;;;15.93;nan
59367;BME280;45163;47.690;11.770;2023-08-01T02:25:39;92539.88;;;15.93;nan
59367;BME280;45163;47.690;11.770;2023-08-01T02:28:06;92541.88;;;15.93;nan
59367;BME280;45163;47.690;11.770;2023-08-01T02:30:33;92541.38;;;15.94;nan
59367;BME280;45163;47.690;11.770;2023-08-01T02:32:59;92517.53;;;15.86;nan
59367;BME280;45163;47.690;11.770;2023-08-01T02:35:25;92521.38;;;16.00;nan
59367;BME280;45163;47.690;11.770;2023-08-01T02:37:51;92522.66;;;16.04;nan
59367;BME280;45163;47.690;11.770;2023-08-01T02:40:17;92531.94;;;16.01;nan
59367;BME280;45163;47.690;11.770;2023-08-01T02:42:43;92513.78;;;16.21;nan
59367;BME280;45163;47.690;11.770;2023-08-01T02:45:09;92501.34;;;16.31;nan
59367;BME280;45163;47.690;11.770;2023-08-01T02:47:35;92506.88;;;16.36;nan
59367;BME280;45163;47.690;11.770;2023-08-01T02:50:01;92496.84;;;16.33;nan
59367;BME280;45163;47.690;11.770;2023-08-01T02:52:26;92511.34;;;16.28;nan
59367;BME280;45163;47.690;11.770;2023-08-01T02:54:53;92517.47;;;16.12;nan
59367;BME280;45163;47.690;11.770;2023-08-01T02:57:19;92520.72;;;16.10;nan
59367;BME280;45163;47.690;11.770;2023-08-01T02:59:45;92521.59;;;15.96;nan
59367;BME280;45163;47.690;11.770;2023-08-01T03:02:11;92522.28;;;15.85;nan
59367;BME280;45163;47.690;11.770;2023-08-01T03:04:37;92505.69;;;15.80;nan
59367;BME280;45163;47.690;11.770;2023-08-01T03:07:03;92495.69;;;15.77;nan
59367;BME280;45163;47.690;11.770;2023-08-01T03:09:29;92502.91;;;15.74;nan
59367;BME280;45163;47.690;11.770;2023-08-01T03:11:55;92509.16;;;15.75;nan
59367;BME280;45163;47.690;11.770;2023-08-01T03:14:21;92505.94;;;15.76;nan
59367;BME280;45163;47.690;11.770;2023-08-01T03:16:47;92493.88;;;15.68;nan
59367;BME280;45163;47.690;11.770;2023-08-01T03:19:13;92505.13;;;15.70;nan
59367;BME280;45163;47.690;11.770;2023-08-01T03:21:39;92508.19;;;15.78;nan
59367;BME280;45163;47.690;11.770;2023-08-01T03:24:05;92515.75;;;15.83;nan
59367;BME280;45163;47.690;11.770;2023-08-01T03:26:37;92527.69;;;15.74;nan
59367;BME280;45163;47.690;11.770;2023-08-01T03:29:03;92524.44;;;15.76;nan
59367;BME280;45163;47.690;11.770;2023-08-01T03:31:31;92517.22;;;15.78;nan
59367;BME280;45163;47.690;11.770;2023-08-01T03:33:57;92519.00;;;15.81;nan
59367;BME280;45163;47.690;11.770;2023-08-01T03:36:25;92504.56;;;15.92;nan
59367;BME280;45163;47.690;11.770;2023-08-01T03:38:51;92502.63;;;15.98;nan
59367;BME280;45163;47.690;11.770;2023-08-01T03:41:17;92496.09;;;15.96;nan
59367;BME280;45163;47.690;11.770;2023-08-01T03:43:43;92503.25;;;15.82;nan
59367;BME280;45163;47.690;11.770;2023-08-01T03:46:09;92495.31;;;15.63;nan
59367;BME280;45163;47.690;11.770;2023-08-01T03:48:35;92502.03;;;15.62;nan
59367;BME280;45163;47.690;11.770;2023-08-01T03:51:01;92501.63;;;15.69;nan
59367;BME280;45163;47.690;11.770;2023-08-01T03:53:29;92506.63;;;15.71;nan
59367;BME280;45163;47.690;11.770;2023-08-01T03:55:55;92504.91;;;15.74;nan
59367;BME280;45163;47.690;11.770;2023-08-01T03:58:22;92513.66;;;15.72;nan
59367;BME280;45163;47.690;11.770;2023-08-01T04:00:48;92517.09;;;15.67;nan
59367;BME280;45163;47.690;11.770;2023-08-01T04:03:13;92501.44;;;15.79;nan
59367;BME280;45163;47.690;11.770;2023-08-01T04:05:39;92503.63;;;15.69;nan
59367;BME280;45163;47.690;11.770;2023-08-01T04:08:06;92502.19;;;15.79;nan
59367;BME280;45163;47.690;11.770;2023-08-01T04:10:32;92512.78;;;15.86;nan
59367;BME280;45163;47.690;11.770;2023-08-01T04:12:58;92508.75;;;15.82;nan
59367;BME280;45163;47.690;11.770;2023-08-01T04:15:24;92523.78;;;15.86;nan
59367;BME280;45163;47.690;11.770;2023-08-01T04:17:50;92518.50;;;15.83;nan
59367;BME280;45163;47.690;11.770;2023-08-01T04:20:15;92517.50;;;15.80;nan
59367;BME280;45163;47.690;11.770;2023-08-01T04:22:41;92514.03;;;15.85;nan
59367;BME280;45163;47.690;11.770;2023-08-01T04:25:08;92508.03;;;15.87;nan
59367;BME280;45163;47.690;11.770;2023-08-01T04:27:34;92510.31;;;15.88;nan
59367;BME280;45163;47.690;11.770;2023-08-01T04:30:00;92506.53;;;15.86;nan
59367;BME280;45163;47.690;11.770;2023-08-01T04:32:26;92500.25;;;15.85;nan
59367;BME280;45163;47.690;11.770;2023-08-01T04:34:52;92509.78;;;15.84;nan
59367;BME280;45163;47.690;11.770;2023-08-01T04:37:18;92518.81;;;15.90;nan
59367;BME280;45163;47.690;11.770;2023-08-01T04:39:48;92522.31;;;15.91;nan
59367;BME280;45163;47.690;11.770;2023-08-01T04:42:14;92530.78;;;15.87;nan
59367;BME280;45163;47.690;11.770;2023-08-01T04:44:40;92524.00;;;15.83;nan
59367;BME280;45163;47.690;11.770;2023-08-01T04:47:06;92524.75;;;15.83;nan
59367;BME280;45163;47.690;11.770;2023-08-01T04:49:32;92514.06;;;15.91;nan
59367;BME280;45163;47.690;11.770;2023-08-01T04:51:57;92515.88;;;16.00;nan
59367;BME280;45163;47.690;11.770;2023-08-01T04:54:23;92519.84;;;15.93;nan
59367;BME280;45163;47.690;11.770;2023-08-01T04:56:49;92521.31;;;15.88;nan
59367;BME280;45163;47.690;11.770;2023-08-01T04:59:15;92533.28;;;15.85;nan
59367;BME280;45163;47.690;11.770;2023-08-01T05:01:41;92548.19;;;15.73;nan
59367;BME280;45163;47.690;11.770;2023-08-01T05:04:07;92531.50;;;15.82;nan
59367;BME280;45163;47.690;11.770;2023-08-01T05:06:33;92536.06;;;15.91;nan
59367;BME280;45163;47.690;11.770;2023-08-01T05:09:00;92541.81;;;15.87;nan
59367;BME280;45163;47.690;11.770;2023-08-01T05:11:26;92530.97;;;15.78;nan
59367;BME280;45163;47.690;11.770;2023-08-01T05:13:52;92532.31;;;15.88;nan
59367;BME280;45163;47.690;11.770;2023-08-01T05:16:17;92538.03;;;15.85;nan
59367;BME280;45163;47.690;11.770;2023-08-01T05:18:43;92539.81;;;15.88;nan
59367;BME280;45163;47.690;11.770;2023-08-01T05:21:09;92535.59;;;15.92;nan
59367;BME280;45163;47.690;11.770;2023-08-01T05:23:36;92533.28;;;15.85;nan
59367;BME280;45163;47.690;11.770;2023-08-01T05:26:02;92527.06;;;15.90;nan
59367;BME280;45163;47.690;11.770;2023-08-01T05:28:28;92526.97;;;15.79;nan
59367;BME280;45163;47.690;11.770;2023-08-01T05:30:54;92532.66;;;15.70;nan
59367;BME280;45163;47.690;11.770;2023-08-01T05:33:20;92534.97;;;15.77;nan
59367;BME280;45163;47.690;11.770;2023-08-01T05:35:46;92539.19;;;15.73;nan
59367;BME280;45163;47.690;11.770;2023-08-01T05:38:12;92530.59;;;15.65;nan
59367;BME280;45163;47.690;11.770;2023-08-01T05:40:38;92539.41;;;15.69;nan
59367;BME280;45163;47.690;11.770;2023-08-01T05:43:05;92549.69;;;15.74;nan
59367;BME280;45163;47.690;11.770;2023-08-01T05:45:34;92546.03;;;15.62;nan
59367;BME280;45163;47.690;11.770;2023-08-01T05:48:01;92544.16;;;15.68;nan
59367;BME280;45163;47.690;11.770;2023-08-01T05:50:27;92538.78;;;15.59;nan
59367;BME280;45163;47.690;11.770;2023-08-01T05:52:53;92549.28;;;15.61;nan
59367;BME280;45163;47.690;11.770;2023-08-01T05:55:19;92555.75;;;15.58;nan
59367;BME280;45163;47.690;11.770;2023-08-01T05:57:46;92559.03;;;15.62;nan
59367;BME280;45163;47.690;11.770;2023-08-01T06:00:15;92551.34;;;15.66;nan
59367;BME280;45163;47.690;11.770;2023-08-01T06:02:41;92550.13;;;15.67;nan
59367;BME280;45163;47.690;11.770;2023-08-01T06:05:07;92547.03;;;15.59;nan
59367;BME280;45163;47.690;11.770;2023-08-01T06:07:33;92552.41;;;15.48;nan
59367;BME280;45163;47.690;11.770;2023-08-01T06:09:59;92550.66;;;15.51;nan
59367;BME280;45163;47.690;11.770;2023-08-01T06:12:25;92542.69;;;15.53;nan
59367;BME280;45163;47.690;11.770;2023-08-01T06:14:51;92547.84;;;15.65;nan
59367;BME280;45163;47.690;11.770;2023-08-01T06:17:17;92537.25;;;15.58;nan
59367;BME280;45163;47.690;11.770;2023-08-01T06:19:43;92539.19;;;15.73;nan
59367;BME280;45163;47.690;11.770;2023-08-01T06:22:09;92534.00;;;15.80;nan
59367;BME280;45163;47.690;11.770;2023-08-01T06:24:35;92532.75;;;15.81;nan
59367;BME280;45163;47.690;11.770;2023-08-01T06:27:01;92526.97;;;15.79;nan
59367;BME280;45163;47.690;11.770;2023-08-01T06:29:27;92518.50;;;15.83;nan
59367;BME280;45163;47.690;11.770;2023-08-01T06:31:53;92535.13;;;15.94;nan
59367;BME280;45163;47.690;11.770;2023-08-01T06:34:19;92535.22;;;16.05;nan
59367;BME280;45163;47.690;11.770;2023-08-01T06:36:45;92539.19;;;16.04;nan
59367;BME280;45163;47.690;11.770;2023-08-01T06:39:11;92534.22;;;16.08;nan
59367;BME280;45163;47.690;11.770;2023-08-01T06:41:37;92532.47;;;16.05;nan
59367;BME280;45163;47.690;11.770;2023-08-01T06:44:03;92526.88;;;16.00;nan
59367;BME280;45163;47.690;11.770;2023-08-01T06:46:29;92511.28;;;15.85;nan
59367;BME280;45163;47.690;11.770;2023-08-01T06:48:55;92506.00;;;15.82;nan
59367;BME280;45163;47.690;11.770;2023-08-01T06:51:21;92504.56;;;15.92;nan
59367;BME280;45163;47.690;11.770;2023-08-01T06:53:47;92512.66;;;16.01;nan
59367;BME280;45163;47.690;11.770;2023-08-01T06:56:13;92526.66;;;16.03;nan
59367;BME280;45163;47.690;11.770;2023-08-01T06:58:39;92524.22;;;16.11;nan
59367;BME280;45163;47.690;11.770;2023-08-01T07:01:05;92520.22;;;16.12;nan
59367;BME280;45163;47.690;11.770;2023-08-01T07:03:31;92523.97;;;16.09;nan
59367;BME280;45163;47.690;11.770;2023-08-01T07:05:57;92522.72;;;16.10;nan
59367;BME280;45163;47.690;11.770;2023-08-01T07:08:24;92508.69;;;16.08;nan
59367;BME280;45163;47.690;11.770;2023-08-01T07:10:49;92514.19;;;16.08;nan
59367;BME280;45163;47.690;11.770;2023-08-01T07:13:15;92516.19;;;16.07;nan
59367;BME280;45163;47.690;11.770;2023-08-01T07:15:42;92509.84;;;15.96;nan
59367;BME280;45163;47.690;11.770;2023-08-01T07:18:08;92499.97;;;16.09;nan
59367;BME280;45163;47.690;11.770;2023-08-01T07:20:34;92491.72;;;16.15;nan
59367;BME280;45163;47.690;11.770;2023-08-01T07:23:00;92487.50;;;16.19;nan
59367;BME280;45163;47.690;11.770;2023-08-01T07:25:26;92478.75;;;16.21;nan
59367;BME280;45163;47.690;11.770;2023-08-01T07:27:52;92473.84;;;16.36;nan
59367;BME280;45163;47.690;11.770;2023-08-01T07:30:18;92489.09;;;16.37;nan
59367;BME280;45163;47.690;11.770;2023-08-01T07:32:44;92488.63;;;16.39;nan
59367;BME280;45163;47.690;11.770;2023-08-01T07:35:10;92486.09;;;16.35;nan
59367;BME280;45163;47.690;11.770;2023-08-01T07:37:36;92477.38;;;16.42;nan
59367;BME280;45163;47.690;11.770;2023-08-01T07:40:05;92497.75;;;16.56;nan
59367;BME280;45163;47.690;11.770;2023-08-01T07:42:31;92498.09;;;16.75;nan
59367;BME280;45163;47.690;11.770;2023-08-01T07:44:57;92485.84;;;16.76;nan
59367;BME280;45163;47.690;11.770;2023-08-01T07:47:23;92483.63;;;16.86;nan
59367;BME280;45163;47.690;11.770;2023-08-01T07:49:51;92472.84;;;16.82;nan
59367;BME280;45163;47.690;11.770;2023-08-01T07:52:17;92473.13;;;16.96;nan
59367;BME280;45163;47.690;11.770;2023-08-01T07:54:43;92465.09;;;16.92;nan
59367;BME280;45163;47.690;11.770;2023-08-01T07:57:09;92443.59;;;17.13;nan
59367;BME280;45163;47.690;11.770;2023-08-01T07:59:35;92424.88;;;17.39;nan
59367;BME280;45163;47.690;11.770;2023-08-01T08:02:01;92426.63;;;17.48;nan
59367;BME280;45163;47.690;11.770;2023-08-01T08:04:26;92426.63;;;17.59;nan
59367;BME280;45163;47.690;11.770;2023-08-01T08:06:52;92425.66;;;17.90;nan
59367;BME280;45163;47.690;11.770;2023-08-01T08:09:20;92428.13;;;18.28;nan
59367;BME280;45163;47.690;11.770;2023-08-01T08:11:48;92432.78;;;18.66;nan
59367;BME280;45163;47.690;11.770;2023-08-01T08:14:15;92420.34;;;19.01;nan
59367;BME280;45163;47.690;11.770;2023-08-01T08:16:42;92418.06;;;19.47;nan
59367;BME280;45163;47.690;11.770;2023-08-01T08:19:08;92408.81;;;19.38;nan
59367;BME280;45163;47.690;11.770;2023-08-01T08:21:34;92403.28;;;19.38;nan
59367;BME280;45163;47.690;11.770;2023-08-01T08:24:03;92406.09;;;19.69;nan
59367;BME280;45163;47.690;11.770;2023-08-01T08:26:29;92411.97;;;19.89;nan
59367;BME280;45163;47.690;11.770;2023-08-01T08:28:56;92408.09;;;19.74;nan
59367;BME280;45163;47.690;11.770;2023-08-01T08:31:23;92402.19;;;19.53;nan
59367;BME280;45163;47.690;11.770;2023-08-01T08:33:49;92388.47;;;19.72;nan
59367;BME280;45163;47.690;11.770;2023-08-01T08:36:14;92397.91;;;19.87;nan
59367;BME280;45163;47.690;11.770;2023-08-01T08:38:40;92393.63;;;19.51;nan
59367;BME280;45163;47.690;11.770;2023-08-01T08:41:38;92394.38;;;19.51;nan
59367;BME280;45163;47.690;11.770;2023-08-01T08:44:07;92383.22;;;19.98;nan
59367;BME280;45163;47.690;11.770;2023-08-01T08:46:41;92381.63;;;19.78;nan
59367;BME280;45163;47.690;11.770;2023-08-01T08:49:07;92371.44;;;19.92;nan
59367;BME280;45163;47.690;11.770;2023-08-01T08:51:36;92377.06;;;20.11;nan
59367;BME280;45163;47.690;11.770;2023-08-01T08:54:03;92364.88;;;19.65;nan
59367;BME280;45163;47.690;11.770;2023-08-01T08:56:30;92366.91;;;19.23;nan
59367;BME280;45163;47.690;11.770;2023-08-01T08:58:56;92375.28;;;19.48;nan
59367;BME280;45163;47.690;11.770;2023-08-01T09:01:23;92377.38;;;19.72;nan
59367;BME280;45163;47.690;11.770;2023-08-01T09:03:49;92373.22;;;19.54;nan
59367;BME280;45163;47.690;11.770;2023-08-01T09:06:17;92380.25;;;19.55;nan
59367;BME280;45163;47.690;11.770;2023-08-01T09:08:50;92384.44;;;19.73;nan
59367;BME280;45163;47.690;11.770;2023-08-01T09:11:17;92381.34;;;19.46;nan
59367;BME280;45163;47.690;11.770;2023-08-01T09:13:43;92385.50;;;19.23;nan
59367;BME280;45163;47.690;11.770;2023-08-01T09:16:10;92392.91;;;19.09;nan
59367;BME280;45163;47.690;11.770;2023-08-01T09:18:47;92390.97;;;18.98;nan
59367;BME280;45163;47.690;11.770;2023-08-01T09:21:13;92377.13;;;18.98;nan
59367;BME280;45163;47.690;11.770;2023-08-01T09:23:39;92386.00;;;18.80;nan
59367;BME280;45163;47.690;11.770;2023-08-01T09:26:19;92370.28;;;18.52;nan
59367;BME280;45163;47.690;11.770;2023-08-01T09:28:57;92390.19;;;18.39;nan
59367;BME280;45163;47.690;11.770;2023-08-01T09:31:28;92413.22;;;18.53;nan
59367;BME280;45163;47.690;11.770;2023-08-01T09:33:54;92403.38;;;18.69;nan
59367;BME280;45163;47.690;11.770;2023-08-01T09:36:21;92378.34;;;18.39;nan
59367;BME280;45163;47.690;11.770;2023-08-01T09:38:48;92362.97;;;18.55;nan
59367;BME280;45163;47.690;11.770;2023-08-01T09:41:17;92363.03;;;18.38;nan
59367;BME280;45163;47.690;11.770;2023-08-01T09:43:45;92381.34;;;18.47;nan
59367;BME280;45163;47.690;11.770;2023-08-01T09:46:12;92380.09;;;18.48;nan
59367;BME280;45163;47.690;11.770;2023-08-01T09:48:39;92359.50;;;18.43;nan
59367;BME280;45163;47.690;11.770;2023-08-01T09:53:46;92358.44;;;18.57;nan
59367;BME280;45163;47.690;11.770;2023-08-01T09:56:19;92358.53;;;18.93;nan
59367;BME280;45163;47.690;11.770;2023-08-01T09:58:47;92352.25;;;18.98;nan
59367;BME280;45163;47.690;11.770;2023-08-01T10:01:15;92354.66;;;19.13;nan
59367;BME280;45163;47.690;11.770;2023-08-01T10:03:45;92359.09;;;19.27;nan
59367;BME280;45163;47.690;11.770;2023-08-01T10:06:18;92350.03;;;19.27;nan
59367;BME280;45163;47.690;11.770;2023-08-01T10:08:46;92350.06;;;18.85;nan
59367;BME280;45163;47.690;11.770;2023-08-01T10:11:16;92347.16;;;19.08;nan
59367;BME280;45163;47.690;11.770;2023-08-01T10:13:43;92344.59;;;19.15;nan
59367;BME280;45163;47.690;11.770;2023-08-01T10:16:13;92357.16;;;19.16;nan
59367;BME280;45163;47.690;11.770;2023-08-01T10:18:40;92357.56;;;19.32;nan
59367;BME280;45163;47.690;11.770;2023-08-01T10:21:07;92355.59;;;19.57;nan
59367;BME280;45163;47.690;11.770;2023-08-01T10:23:35;92346.44;;;19.73;nan
59367;BME280;45163;47.690;11.770;2023-08-01T10:26:04;92356.78;;;19.97;nan
59367;BME280;45163;47.690;11.770;2023-08-01T10:28:35;92358.13;;;20.15;nan
59367;BME280;45163;47.690;11.770;2023-08-01T10:31:12;92360.44;;;20.79;nan
59367;BME280;45163;47.690;11.770;2023-08-01T10:33:39;92344.09;;;21.13;nan
59367;BME280;45163;47.690;11.770;2023-08-01T10:36:19;92342.81;;;21.14;nan
59367;BME280;45163;47.690;11.770;2023-08-01T10:38:53;92338.53;;;21.64;nan
59367;BME280;45163;47.690;11.770;2023-08-01T10:44:13;92329.28;;;21.75;nan
59367;BME280;45163;47.690;11.770;2023-08-01T10:47:00;92342.59;;;22.08;nan
59367;BME280;45163;47.690;11.770;2023-08-01T10:52:24;92336.06;;;21.93;nan
59367;BME280;45163;47.690;11.770;2023-08-01T10:55:00;92342.81;;;22.10;nan
59367;BME280;45163;47.690;11.770;2023-08-01T10:57:30;92356.69;;;21.97;nan
59367;BME280;45163;47.690;11.770;2023-08-01T10:59:58;92350.47;;;21.46;nan
59367;BME280;45163;47.690;11.770;2023-08-01T11:02:28;92380.25;;;21.45;nan
59367;BME280;45163;47.690;11.770;2023-08-01T11:05:02;92369.16;;;21.07;nan
59367;BME280;45163;47.690;11.770;2023-08-01T11:07:29;92379.31;;;20.80;nan
59367;BME280;45163;47.690;11.770;2023-08-01T11:10:12;92394.44;;;20.60;nan
59367;BME280;45163;47.690;11.770;2023-08-01T11:12:40;92382.63;;;20.05;nan
59367;BME280;45163;47.690;11.770;2023-08-01T11:15:08;92384.44;;;20.27;nan
59367;BME280;45163;47.690;11.770;2023-08-01T11:17:35;92382.44;;;19.73;nan
59367;BME280;45163;47.690;11.770;2023-08-01T11:20:06;92385.19;;;19.73;nan
59367;BME280;45163;47.690;11.770;2023-08-01T11:22:33;92382.09;;;19.47;nan
59367;BME280;45163;47.690;11.770;2023-08-01T11:24:59;92396.66;;;19.11;nan
59367;BME280;45163;47.690;11.770;2023-08-01T11:27:26;92414.84;;;18.96;nan
59367;BME280;45163;47.690;11.770;2023-08-01T11:29:53;92424.75;;;18.74;nan
59367;BME280;45163;47.690;11.770;2023-08-01T11:32:20;92416.25;;;18.50;nan
59367;BME280;45163;47.690;11.770;2023-08-01T11:34:47;92425.34;;;18.22;nan
59367;BME280;45163;47.690;11.770;2023-08-01T11:37:15;92432.59;;;18.48;nan
59367;BME280;45163;47.690;11.770;2023-08-01T11:39:41;92439.66;;;18.37;nan
59367;BME280;45163;47.690;11.770;2023-08-01T11:42:14;92451.22;;;18.36;nan
59367;BME280;45163;47.690;11.770;2023-08-01T11:44:40;92422.25;;;18.59;nan
59367;BME280;45163;47.690;11.770;2023-08-01T11:47:14;92407.97;;;19.13;nan
59367;BME280;45163;47.690;11.770;2023-08-01T11:49:48;92394.03;;;19.30;nan
59367;BME280;45163;47.690;11.770;2023-08-01T11:52:24;92402.03;;;19.75;nan
59367;BME280;45163;47.690;11.770;2023-08-01T11:54:51;92394.25;;;20.04;nan
59367;BME280;45163;47.690;11.770;2023-08-01T11:57:17;92402.03;;;20.30;nan
59367;BME280;45163;47.690;11.770;2023-08-01T11:59:51;92389.44;;;20.04;nan
59367;BME280;45163;47.690;11.770;2023-08-01T12:02:29;92387.97;;;20.28;nan
59367;BME280;45163;47.690;11.770;2023-08-01T12:04:56;92391.59;;;20.17;nan
59367;BME280;45163;47.690;11.770;2023-08-01T12:07:25;92379.19;;;19.99;nan
59367;BME280;45163;47.690;11.770;2023-08-01T12:09:59;92375.75;;;19.87;nan
59367;BME280;45163;47.690;11.770;2023-08-01T12:12:27;92386.28;;;20.19;nan
59367;BME280;45163;47.690;11.770;2023-08-01T12:14:54;92394.09;;;20.21;nan
59367;BME280;45163;47.690;11.770;2023-08-01T12:17:20;92361.81;;;20.23;nan
59367;BME280;45163;47.690;11.770;2023-08-01T12:19:46;92361.41;;;20.38;nan
59367;BME280;45163;47.690;11.770;2023-08-01T12:22:12;92373.84;;;20.01;nan
59367;BME280;45163;47.690;11.770;2023-08-01T12:24:38;92362.75;;;20.07;nan
59367;BME280;45163;47.690;11.770;2023-08-01T12:27:06;92374.13;;;20.28;nan
59367;BME280;45163;47.690;11.770;2023-08-01T12:29:32;92381.78;;;20.40;nan
59367;BME280;45163;47.690;11.770;2023-08-01T12:31:58;92382.47;;;20.47;nan
59367;BME280;45163;47.690;11.770;2023-08-01T12:34:24;92383.13;;;20.58;nan
59367;BME280;45163;47.690;11.770;2023-08-01T12:36:50;92379.78;;;20.84;nan
59367;BME280;45163;47.690;11.770;2023-08-01T12:39:23;92361.03;;;20.72;100.00
59367;BME280;45163;47.690;11.770;2023-08-01T12:41:54;92346.25;;;20.63;100.00
59367;BME280;45163;47.690;11.770;2023-08-01T12:44:21;92348.72;;;21.43;100.00
59367;BME280;45163;47.690;11.770;2023-08-01T12:46:47;92333.53;;;22.61;100.00
59367;BME280;45163;47.690;11.770;2023-08-01T12:49:13;92349.66;;;23.02;100.00
59367;BME280;45163;47.690;11.770;2023-08-01T12:51:39;92352.38;;;22.42;100.00
59367;BME280;45163;47.690;11.770;2023-08-01T12:54:05;92360.00;;;21.96;100.00
59367;BME280;45163;47.690;11.770;2023-08-01T12:56:31;92359.00;;;21.80;100.00
59367;BME280;45163;47.690;11.770;2023-08-01T12:58:57;92343.97;;;21.56;100.00
59367;BME280;45163;47.690;11.770;2023-08-01T13:01:23;92348.88;;;21.31;100.00
59367;BME280;45163;47.690;11.770;2023-08-01T13:03:49;92379.28;;;20.86;100.00
59367;BME280;45163;47.690;11.770;2023-08-01T13:06:15;92357.38;;;21.20;100.00
59367;BME280;45163;47.690;11.770;2023-08-01T13:08:43;92352.06;;;21.03;100.00
59367;BME280;45163;47.690;11.770;2023-08-01T13:11:10;92341.72;;;21.55;100.00
59367;BME280;45163;47.690;11.770;2023-08-01T13:13:37;92331.91;;;21.54;100.00
59367;BME280;45163;47.690;11.770;2023-08-01T13:16:04;92333.41;;;21.55;100.00
59367;BME280;45163;47.690;11.770;2023-08-01T13:18:30;92331.81;;;21.59;100.00